sensor_id;sensor_type;location;lat;lon;timestamp;temperature;humidity
4826;DHT22;2427;50.934;6.776;2022-08-19T00:01:28;19.20;1.00
4826;DHT22;2427;50.934;6.776;2022-08-19T00:03:58;19.20;1.00
4826;DHT22;2427;50.934;6.776;2022-08-19T00:06:28;19.10;1.00
4826;DHT22;2427;50.934;6.776;2022-08-19T00:08:54;19.20;1.00
4826;DHT22;2427;50.934;6.776;2022-08-19T00:11:20;19.10;1.00
4826;DHT22;2427;50.934;6.776;2022-08-19T00:13:46;19.10;1.00
4826;DHT22;2427;50.934;6.776;2022-08-19T00:16:14;19.10;1.00
4826;DHT22;2427;50.934;6.776;2022-08-19T00:18:40;19.10;1.00
4826;DHT22;2427;50.934;6.776;2022-08-19T00:21:05;19.10;1.00
4826;DHT22;2427;50.934;6.776;2022-08-19T00:23:34;19.10;1.00
4826;DHT22;2427;50.934;6.776;2022-08-19T00:26:02;19.10;1.00
4826;DHT22;2427;50.934;6.776;2022-08-19T00:28:28;19.10;1.00
4826;DHT22;2427;50.934;6.776;2022-08-19T00:30:54;19.10;1.00
4826;DHT22;2427;50.934;6.776;2022-08-19T00:33:21;19.10;1.00
4826;DHT22;2427;50.934;6.776;2022-08-19T00:35:46;19.00;1.00
4826;DHT22;2427;50.934;6.776;2022-08-19T00:38:12;19.00;1.00
4826;DHT22;2427;50.934;6.776;2022-08-19T00:40:38;19.00;1.00
4826;DHT22;2427;50.934;6.776;2022-08-19T00:43:11;19.00;1.00
4826;DHT22;2427;50.934;6.776;2022-08-19T00:45:39;19.00;1.00
4826;DHT22;2427;50.934;6.776;2022-08-19T00:48:07;19.00;1.00
4826;DHT22;2427;50.934;6.776;2022-08-19T00:50:34;19.00;1.00
4826;DHT22;2427;50.934;6.776;2022-08-19T00:53:01;19.00;1.00
4826;DHT22;2427;50.934;6.776;2022-08-19T00:55:31;19.00;1.00
4826;DHT22;2427;50.934;6.776;2022-08-19T00:58:04;19.10;1.00
4826;DHT22;2427;50.934;6.776;2022-08-19T01:11:07;19.10;1.00
4826;DHT22;2427;50.934;6.776;2022-08-19T01:13:34;19.00;1.00
4826;DHT22;2427;50.934;6.776;2022-08-19T01:16:05;19.00;1.00
4826;DHT22;2427;50.934;6.776;2022-08-19T01:18:32;19.00;1.00
4826;DHT22;2427;50.934;6.776;2022-08-19T01:21:08;19.00;1.00
4826;DHT22;2427;50.934;6.776;2022-08-19T01:23:34;19.00;1.00
4826;DHT22;2427;50.934;6.776;2022-08-19T01:26:23;19.00;1.00
4826;DHT22;2427;50.934;6.776;2022-08-19T01:28:54;19.00;1.00
4826;DHT22;2427;50.934;6.776;2022-08-19T01:31:23;19.00;1.00
4826;DHT22;2427;50.934;6.776;2022-08-19T01:33:50;19.00;1.00
4826;DHT22;2427;50.934;6.776;2022-08-19T01:36:46;19.00;1.00
4826;DHT22;2427;50.934;6.776;2022-08-19T01:39:19;19.00;1.00
4826;DHT22;2427;50.934;6.776;2022-08-19T01:41:46;18.90;1.00
4826;DHT22;2427;50.934;6.776;2022-08-19T01:44:12;18.90;1.00
4826;DHT22;2427;50.934;6.776;2022-08-19T01:46:38;18.90;1.00
4826;DHT22;2427;50.934;6.776;2022-08-19T01:49:04;18.90;1.00
4826;DHT22;2427;50.934;6.776;2022-08-19T01:51:30;18.90;1.00
4826;DHT22;2427;50.934;6.776;2022-08-19T01:53:57;18.80;1.00
4826;DHT22;2427;50.934;6.776;2022-08-19T01:56:24;18.80;1.00
4826;DHT22;2427;50.934;6.776;2022-08-19T01:59:12;18.80;1.00
4826;DHT22;2427;50.934;6.776;2022-08-19T02:01:38;18.90;1.00
4826;DHT22;2427;50.934;6.776;2022-08-19T02:04:04;18.80;1.00
4826;DHT22;2427;50.934;6.776;2022-08-19T02:06:31;18.80;1.00
4826;DHT22;2427;50.934;6.776;2022-08-19T02:08:58;18.80;1.00
4826;DHT22;2427;50.934;6.776;2022-08-19T02:11:29;18.80;1.00
4826;DHT22;2427;50.934;6.776;2022-08-19T02:14:02;18.70;3.20
4826;DHT22;2427;50.934;6.776;2022-08-19T02:16:31;18.70;18.40
4826;DHT22;2427;50.934;6.776;2022-08-19T02:18:58;18.60;99.90
4826;DHT22;2427;50.934;6.776;2022-08-19T02:21:26;18.70;99.90
4826;DHT22;2427;50.934;6.776;2022-08-19T02:23:52;18.80;18.90
4826;DHT22;2427;50.934;6.776;2022-08-19T02:26:18;18.70;43.80
4826;DHT22;2427;50.934;6.776;2022-08-19T02:28:44;18.70;25.20
4826;DHT22;2427;50.934;6.776;2022-08-19T02:31:22;18.70;95.60
4826;DHT22;2427;50.934;6.776;2022-08-19T02:33:51;18.60;99.90
4826;DHT22;2427;50.934;6.776;2022-08-19T02:36:20;18.60;83.80
4826;DHT22;2427;50.934;6.776;2022-08-19T02:38:47;18.60;43.90
4826;DHT22;2427;50.934;6.776;2022-08-19T02:41:19;18.60;52.60
4826;DHT22;2427;50.934;6.776;2022-08-19T02:43:46;18.60;99.90
4826;DHT22;2427;50.934;6.776;2022-08-19T02:46:16;18.60;99.50
4826;DHT22;2427;50.934;6.776;2022-08-19T02:48:50;18.60;90.60
4826;DHT22;2427;50.934;6.776;2022-08-19T02:51:24;18.50;99.90
4826;DHT22;2427;50.934;6.776;2022-08-19T02:53:50;18.50;99.90
4826;DHT22;2427;50.934;6.776;2022-08-19T02:56:18;18.50;99.90
4826;DHT22;2427;50.934;6.776;2022-08-19T02:58:44;18.50;99.90
4826;DHT22;2427;50.934;6.776;2022-08-19T03:01:28;18.40;99.90
4826;DHT22;2427;50.934;6.776;2022-08-19T03:03:55;18.40;99.90
4826;DHT22;2427;50.934;6.776;2022-08-19T03:06:22;18.40;99.90
4826;DHT22;2427;50.934;6.776;2022-08-19T03:08:48;18.50;99.90
4826;DHT22;2427;50.934;6.776;2022-08-19T03:11:27;18.50;99.90
4826;DHT22;2427;50.934;6.776;2022-08-19T03:13:54;18.40;99.90
4826;DHT22;2427;50.934;6.776;2022-08-19T03:16:22;18.40;99.90
4826;DHT22;2427;50.934;6.776;2022-08-19T03:18:49;18.40;99.90
4826;DHT22;2427;50.934;6.776;2022-08-19T03:21:22;18.30;99.90
4826;DHT22;2427;50.934;6.776;2022-08-19T03:23:56;18.30;99.90
4826;DHT22;2427;50.934;6.776;2022-08-19T03:26:22;18.30;99.90
4826;DHT22;2427;50.934;6.776;2022-08-19T03:28:48;18.20;99.90
4826;DHT22;2427;50.934;6.776;2022-08-19T03:31:16;18.20;99.90
4826;DHT22;2427;50.934;6.776;2022-08-19T03:33:43;18.20;99.90
4826;DHT22;2427;50.934;6.776;2022-08-19T03:36:11;18.10;99.90
4826;DHT22;2427;50.934;6.776;2022-08-19T03:38:44;18.10;1.00
4826;DHT22;2427;50.934;6.776;2022-08-19T03:41:13;18.10;1.00
4826;DHT22;2427;50.934;6.776;2022-08-19T03:43:41;18.10;1.00
4826;DHT22;2427;50.934;6.776;2022-08-19T03:46:19;18.10;1.00
4826;DHT22;2427;50.934;6.776;2022-08-19T03:48:51;18.10;1.00
4826;DHT22;2427;50.934;6.776;2022-08-19T03:51:31;18.10;1.00
4826;DHT22;2427;50.934;6.776;2022-08-19T03:53:59;18.10;1.00
4826;DHT22;2427;50.934;6.776;2022-08-19T03:56:26;18.00;1.00
4826;DHT22;2427;50.934;6.776;2022-08-19T03:58:57;18.10;1.00
4826;DHT22;2427;50.934;6.776;2022-08-19T04:01:30;18.10;1.00
4826;DHT22;2427;50.934;6.776;2022-08-19T04:03:57;18.10;1.00
4826;DHT22;2427;50.934;6.776;2022-08-19T04:06:26;18.00;52.90
4826;DHT22;2427;50.934;6.776;2022-08-19T04:08:53;18.10;99.90
4826;DHT22;2427;50.934;6.776;2022-08-19T04:11:23;18.10;99.90
4826;DHT22;2427;50.934;6.776;2022-08-19T04:13:50;18.10;99.90
4826;DHT22;2427;50.934;6.776;2022-08-19T04:16:18;18.10;99.90
4826;DHT22;2427;50.934;6.776;2022-08-19T04:18:45;18.10;1.00
4826;DHT22;2427;50.934;6.776;2022-08-19T04:21:18;18.00;1.00
4826;DHT22;2427;50.934;6.776;2022-08-19T04:23:45;18.00;1.00
4826;DHT22;2427;50.934;6.776;2022-08-19T04:26:15;18.00;1.00
4826;DHT22;2427;50.934;6.776;2022-08-19T04:28:41;18.00;1.00
4826;DHT22;2427;50.934;6.776;2022-08-19T04:31:16;18.00;1.00
4826;DHT22;2427;50.934;6.776;2022-08-19T04:33:43;18.00;1.00
4826;DHT22;2427;50.934;6.776;2022-08-19T04:36:16;18.00;1.00
4826;DHT22;2427;50.934;6.776;2022-08-19T04:38:43;18.00;1.00
4826;DHT22;2427;50.934;6.776;2022-08-19T04:41:08;17.90;1.00
4826;DHT22;2427;50.934;6.776;2022-08-19T04:43:53;17.90;83.00
4826;DHT22;2427;50.934;6.776;2022-08-19T04:46:18;17.90;1.00
4826;DHT22;2427;50.934;6.776;2022-08-19T04:48:44;17.90;1.00
4826;DHT22;2427;50.934;6.776;2022-08-19T04:51:11;17.90;1.00
4826;DHT22;2427;50.934;6.776;2022-08-19T04:53:40;17.90;1.00
4826;DHT22;2427;50.934;6.776;2022-08-19T04:56:14;17.90;1.00
4826;DHT22;2427;50.934;6.776;2022-08-19T04:58:42;17.90;1.00
4826;DHT22;2427;50.934;6.776;2022-08-19T05:01:18;17.90;7.90
4826;DHT22;2427;50.934;6.776;2022-08-19T05:03:44;17.90;1.00
4826;DHT22;2427;50.934;6.776;2022-08-19T05:06:12;17.90;99.90
4826;DHT22;2427;50.934;6.776;2022-08-19T05:08:39;17.90;99.90
4826;DHT22;2427;50.934;6.776;2022-08-19T05:13:37;18.00;1.00
4826;DHT22;2427;50.934;6.776;2022-08-19T05:16:03;18.00;1.00
4826;DHT22;2427;50.934;6.776;2022-08-19T05:18:29;18.10;99.90
4826;DHT22;2427;50.934;6.776;2022-08-19T05:21:15;18.10;99.90
4826;DHT22;2427;50.934;6.776;2022-08-19T05:24:00;18.10;1.00
4826;DHT22;2427;50.934;6.776;2022-08-19T05:26:25;18.20;40.90
4826;DHT22;2427;50.934;6.776;2022-08-19T05:28:55;18.20;1.00
4826;DHT22;2427;50.934;6.776;2022-08-19T05:31:21;18.20;1.00
4826;DHT22;2427;50.934;6.776;2022-08-19T05:33:47;18.20;1.00
4826;DHT22;2427;50.934;6.776;2022-08-19T05:36:13;18.20;1.00
4826;DHT22;2427;50.934;6.776;2022-08-19T05:38:39;18.20;1.00
4826;DHT22;2427;50.934;6.776;2022-08-19T05:41:09;18.30;1.00
4826;DHT22;2427;50.934;6.776;2022-08-19T05:43:35;18.30;99.90
4826;DHT22;2427;50.934;6.776;2022-08-19T05:46:03;18.30;1.00
4826;DHT22;2427;50.934;6.776;2022-08-19T05:48:30;18.30;99.90
4826;DHT22;2427;50.934;6.776;2022-08-19T05:50:56;18.40;99.90
4826;DHT22;2427;50.934;6.776;2022-08-19T05:53:23;18.40;99.90
4826;DHT22;2427;50.934;6.776;2022-08-19T05:55:49;18.50;99.90
4826;DHT22;2427;50.934;6.776;2022-08-19T05:58:15;18.60;19.40
4826;DHT22;2427;50.934;6.776;2022-08-19T06:00:43;18.70;1.00
4826;DHT22;2427;50.934;6.776;2022-08-19T06:03:09;18.70;1.00
4826;DHT22;2427;50.934;6.776;2022-08-19T06:05:35;18.60;1.00
4826;DHT22;2427;50.934;6.776;2022-08-19T06:08:01;18.60;1.00
4826;DHT22;2427;50.934;6.776;2022-08-19T06:10:27;18.60;1.00
4826;DHT22;2427;50.934;6.776;2022-08-19T06:12:53;18.60;1.00
4826;DHT22;2427;50.934;6.776;2022-08-19T06:15:19;18.60;1.00
4826;DHT22;2427;50.934;6.776;2022-08-19T06:17:45;18.70;1.00
4826;DHT22;2427;50.934;6.776;2022-08-19T06:20:12;18.70;1.00
4826;DHT22;2427;50.934;6.776;2022-08-19T06:22:44;18.80;1.00
4826;DHT22;2427;50.934;6.776;2022-08-19T06:25:12;19.00;1.00
4826;DHT22;2427;50.934;6.776;2022-08-19T06:27:41;19.10;1.00
4826;DHT22;2427;50.934;6.776;2022-08-19T06:30:07;19.20;99.90
4826;DHT22;2427;50.934;6.776;2022-08-19T06:32:33;19.30;99.90
4826;DHT22;2427;50.934;6.776;2022-08-19T06:34:59;19.30;99.90
4826;DHT22;2427;50.934;6.776;2022-08-19T06:37:25;19.30;99.90
4826;DHT22;2427;50.934;6.776;2022-08-19T06:39:53;19.20;99.90
4826;DHT22;2427;50.934;6.776;2022-08-19T06:42:19;19.10;99.90
4826;DHT22;2427;50.934;6.776;2022-08-19T06:44:47;19.10;99.90
4826;DHT22;2427;50.934;6.776;2022-08-19T06:47:16;19.10;1.00
4826;DHT22;2427;50.934;6.776;2022-08-19T06:49:42;19.00;99.90
4826;DHT22;2427;50.934;6.776;2022-08-19T06:52:17;18.90;1.00
4826;DHT22;2427;50.934;6.776;2022-08-19T06:54:43;18.90;1.00
4826;DHT22;2427;50.934;6.776;2022-08-19T06:57:11;18.90;1.00
4826;DHT22;2427;50.934;6.776;2022-08-19T06:59:47;19.00;1.00
4826;DHT22;2427;50.934;6.776;2022-08-19T07:02:21;19.00;1.00
4826;DHT22;2427;50.934;6.776;2022-08-19T07:04:51;19.00;99.90
4826;DHT22;2427;50.934;6.776;2022-08-19T07:07:39;19.00;1.00
4826;DHT22;2427;50.934;6.776;2022-08-19T07:10:07;18.90;1.00
4826;DHT22;2427;50.934;6.776;2022-08-19T07:12:32;19.00;1.00
4826;DHT22;2427;50.934;6.776;2022-08-19T07:15:00;19.00;1.00
4826;DHT22;2427;50.934;6.776;2022-08-19T07:17:26;19.10;1.00
4826;DHT22;2427;50.934;6.776;2022-08-19T07:19:52;19.00;1.00
4826;DHT22;2427;50.934;6.776;2022-08-19T07:22:18;19.10;1.00
4826;DHT22;2427;50.934;6.776;2022-08-19T07:24:46;19.10;99.90
4826;DHT22;2427;50.934;6.776;2022-08-19T07:27:13;19.10;99.90
4826;DHT22;2427;50.934;6.776;2022-08-19T07:29:39;19.20;99.90
4826;DHT22;2427;50.934;6.776;2022-08-19T07:32:05;19.20;99.90
4826;DHT22;2427;50.934;6.776;2022-08-19T07:34:31;19.20;99.90
4826;DHT22;2427;50.934;6.776;2022-08-19T07:37:00;19.20;99.90
4826;DHT22;2427;50.934;6.776;2022-08-19T07:39:29;19.30;1.00
4826;DHT22;2427;50.934;6.776;2022-08-19T07:41:57;19.30;99.90
4826;DHT22;2427;50.934;6.776;2022-08-19T07:44:29;19.30;99.90
4826;DHT22;2427;50.934;6.776;2022-08-19T07:46:56;19.40;99.90
4826;DHT22;2427;50.934;6.776;2022-08-19T07:49:23;19.50;99.90
4826;DHT22;2427;50.934;6.776;2022-08-19T07:51:53;19.60;99.90
4826;DHT22;2427;50.934;6.776;2022-08-19T07:54:20;19.60;99.90
4826;DHT22;2427;50.934;6.776;2022-08-19T07:56:46;19.70;99.90
4826;DHT22;2427;50.934;6.776;2022-08-19T07:59:12;19.70;99.90
4826;DHT22;2427;50.934;6.776;2022-08-19T08:01:38;19.80;99.90
4826;DHT22;2427;50.934;6.776;2022-08-19T08:04:08;20.00;99.90
4826;DHT22;2427;50.934;6.776;2022-08-19T08:06:53;20.10;99.90
4826;DHT22;2427;50.934;6.776;2022-08-19T08:09:39;20.20;65.70
4826;DHT22;2427;50.934;6.776;2022-08-19T08:12:09;20.30;52.50
4826;DHT22;2427;50.934;6.776;2022-08-19T08:14:50;20.40;1.00
4826;DHT22;2427;50.934;6.776;2022-08-19T08:17:18;20.60;1.00
4826;DHT22;2427;50.934;6.776;2022-08-19T08:19:45;20.70;1.00
4826;DHT22;2427;50.934;6.776;2022-08-19T08:22:14;20.70;1.00
4826;DHT22;2427;50.934;6.776;2022-08-19T08:25:08;20.70;1.00
4826;DHT22;2427;50.934;6.776;2022-08-19T08:27:38;20.80;1.00
4826;DHT22;2427;50.934;6.776;2022-08-19T08:30:13;20.80;1.00
4826;DHT22;2427;50.934;6.776;2022-08-19T08:32:40;20.90;1.00
4826;DHT22;2427;50.934;6.776;2022-08-19T08:35:10;21.00;99.90
4826;DHT22;2427;50.934;6.776;2022-08-19T08:37:54;20.90;99.90
4826;DHT22;2427;50.934;6.776;2022-08-19T08:43:07;21.00;99.90
4826;DHT22;2427;50.934;6.776;2022-08-19T08:45:49;21.00;99.90
4826;DHT22;2427;50.934;6.776;2022-08-19T08:48:49;21.00;99.90
4826;DHT22;2427;50.934;6.776;2022-08-19T08:51:43;21.00;99.90
4826;DHT22;2427;50.934;6.776;2022-08-19T08:54:30;21.10;99.90
4826;DHT22;2427;50.934;6.776;2022-08-19T08:57:11;21.00;99.90
4826;DHT22;2427;50.934;6.776;2022-08-19T08:59:40;21.00;99.90
4826;DHT22;2427;50.934;6.776;2022-08-19T09:02:07;21.10;99.90
4826;DHT22;2427;50.934;6.776;2022-08-19T09:04:37;21.20;99.90
4826;DHT22;2427;50.934;6.776;2022-08-19T09:10:26;21.30;1.00
4826;DHT22;2427;50.934;6.776;2022-08-19T09:15:45;21.50;1.00
4826;DHT22;2427;50.934;6.776;2022-08-19T09:18:11;21.70;1.00
4826;DHT22;2427;50.934;6.776;2022-08-19T09:20:43;21.80;1.00
4826;DHT22;2427;50.934;6.776;2022-08-19T09:26:17;22.00;1.00
4826;DHT22;2427;50.934;6.776;2022-08-19T09:28:46;22.30;1.00
4826;DHT22;2427;50.934;6.776;2022-08-19T09:31:26;22.40;1.00
4826;DHT22;2427;50.934;6.776;2022-08-19T09:33:52;22.30;1.00
4826;DHT22;2427;50.934;6.776;2022-08-19T09:36:23;22.60;1.00
4826;DHT22;2427;50.934;6.776;2022-08-19T09:38:51;22.90;1.00
4826;DHT22;2427;50.934;6.776;2022-08-19T09:41:19;23.10;99.90
4826;DHT22;2427;50.934;6.776;2022-08-19T09:43:48;23.20;99.90
4826;DHT22;2427;50.934;6.776;2022-08-19T09:46:14;23.40;99.90
4826;DHT22;2427;50.934;6.776;2022-08-19T09:48:42;23.60;99.90
4826;DHT22;2427;50.934;6.776;2022-08-19T09:51:12;23.70;99.90
4826;DHT22;2427;50.934;6.776;2022-08-19T09:53:42;23.80;99.90
4826;DHT22;2427;50.934;6.776;2022-08-19T09:56:08;24.10;99.90
4826;DHT22;2427;50.934;6.776;2022-08-19T09:58:34;24.40;99.90
4826;DHT22;2427;50.934;6.776;2022-08-19T10:01:02;24.40;99.90
4826;DHT22;2427;50.934;6.776;2022-08-19T10:03:30;24.30;99.90
4826;DHT22;2427;50.934;6.776;2022-08-19T10:05:57;24.30;99.90
4826;DHT22;2427;50.934;6.776;2022-08-19T10:08:31;24.30;99.90
4826;DHT22;2427;50.934;6.776;2022-08-19T10:10:58;24.50;99.90
4826;DHT22;2427;50.934;6.776;2022-08-19T10:13:25;24.60;99.90
4826;DHT22;2427;50.934;6.776;2022-08-19T10:15:57;24.80;99.90
4826;DHT22;2427;50.934;6.776;2022-08-19T10:18:27;24.70;99.90
4826;DHT22;2427;50.934;6.776;2022-08-19T10:21:08;24.90;99.90
4826;DHT22;2427;50.934;6.776;2022-08-19T10:23:36;24.70;99.90
4826;DHT22;2427;50.934;6.776;2022-08-19T10:26:06;24.60;99.90
4826;DHT22;2427;50.934;6.776;2022-08-19T10:28:36;24.70;99.90
4826;DHT22;2427;50.934;6.776;2022-08-19T10:31:07;24.80;99.90
4826;DHT22;2427;50.934;6.776;2022-08-19T10:33:34;24.80;99.90
4826;DHT22;2427;50.934;6.776;2022-08-19T10:36:07;24.70;99.90
4826;DHT22;2427;50.934;6.776;2022-08-19T10:38:33;24.90;99.90
4826;DHT22;2427;50.934;6.776;2022-08-19T10:41:20;24.70;99.90
4826;DHT22;2427;50.934;6.776;2022-08-19T10:43:47;24.60;99.90
4826;DHT22;2427;50.934;6.776;2022-08-19T10:46:14;24.80;99.90
4826;DHT22;2427;50.934;6.776;2022-08-19T10:48:42;25.10;99.90
4826;DHT22;2427;50.934;6.776;2022-08-19T10:51:09;25.30;99.90
4826;DHT22;2427;50.934;6.776;2022-08-19T10:53:54;25.60;99.90
4826;DHT22;2427;50.934;6.776;2022-08-19T10:56:21;25.80;99.90
4826;DHT22;2427;50.934;6.776;2022-08-19T10:59:05;25.70;99.90
4826;DHT22;2427;50.934;6.776;2022-08-19T11:01:35;25.60;99.90
4826;DHT22;2427;50.934;6.776;2022-08-19T11:04:03;25.60;99.90
4826;DHT22;2427;50.934;6.776;2022-08-19T11:06:30;25.40;99.90
4826;DHT22;2427;50.934;6.776;2022-08-19T11:08:56;25.70;99.90
4826;DHT22;2427;50.934;6.776;2022-08-19T11:11:22;25.70;99.90
4826;DHT22;2427;50.934;6.776;2022-08-19T11:13:53;25.60;99.90
4826;DHT22;2427;50.934;6.776;2022-08-19T11:16:22;25.40;99.90
4826;DHT22;2427;50.934;6.776;2022-08-19T11:18:50;25.40;99.90
4826;DHT22;2427;50.934;6.776;2022-08-19T11:21:23;25.40;99.90
4826;DHT22;2427;50.934;6.776;2022-08-19T11:23:52;25.50;99.90
4826;DHT22;2427;50.934;6.776;2022-08-19T11:26:19;25.70;99.90
4826;DHT22;2427;50.934;6.776;2022-08-19T11:28:51;25.80;99.90
4826;DHT22;2427;50.934;6.776;2022-08-19T11:31:23;25.90;99.90
4826;DHT22;2427;50.934;6.776;2022-08-19T11:33:49;25.80;99.90
4826;DHT22;2427;50.934;6.776;2022-08-19T11:36:20;25.90;99.90
4826;DHT22;2427;50.934;6.776;2022-08-19T11:38:49;26.00;99.90
4826;DHT22;2427;50.934;6.776;2022-08-19T11:41:16;26.10;99.90
4826;DHT22;2427;50.934;6.776;2022-08-19T11:43:43;25.90;99.90
4826;DHT22;2427;50.934;6.776;2022-08-19T11:46:11;26.10;99.90
4826;DHT22;2427;50.934;6.776;2022-08-19T11:48:37;26.40;99.90
4826;DHT22;2427;50.934;6.776;2022-08-19T11:51:08;26.30;99.90
4826;DHT22;2427;50.934;6.776;2022-08-19T11:53:35;26.30;99.90
4826;DHT22;2427;50.934;6.776;2022-08-19T11:56:02;26.30;99.90
4826;DHT22;2427;50.934;6.776;2022-08-19T11:58:28;26.40;99.90
4826;DHT22;2427;50.934;6.776;2022-08-19T12:00:56;26.80;99.90
4826;DHT22;2427;50.934;6.776;2022-08-19T12:03:22;27.00;99.90
4826;DHT22;2427;50.934;6.776;2022-08-19T12:05:48;26.80;99.90
4826;DHT22;2427;50.934;6.776;2022-08-19T12:08:15;26.80;99.90
4826;DHT22;2427;50.934;6.776;2022-08-19T12:10:41;27.00;99.90
4826;DHT22;2427;50.934;6.776;2022-08-19T12:13:08;27.10;99.90
4826;DHT22;2427;50.934;6.776;2022-08-19T12:15:38;27.10;99.90
4826;DHT22;2427;50.934;6.776;2022-08-19T12:18:08;27.10;99.90
4826;DHT22;2427;50.934;6.776;2022-08-19T12:20:36;27.00;99.90
4826;DHT22;2427;50.934;6.776;2022-08-19T12:23:03;27.50;99.90
4826;DHT22;2427;50.934;6.776;2022-08-19T12:25:28;27.80;99.90
4826;DHT22;2427;50.934;6.776;2022-08-19T12:27:54;28.00;99.90
4826;DHT22;2427;50.934;6.776;2022-08-19T12:30:20;27.80;99.90
4826;DHT22;2427;50.934;6.776;2022-08-19T12:32:45;28.00;99.90
4826;DHT22;2427;50.934;6.776;2022-08-19T12:35:11;28.40;99.90
4826;DHT22;2427;50.934;6.776;2022-08-19T12:37:38;28.50;99.90
4826;DHT22;2427;50.934;6.776;2022-08-19T12:40:04;28.50;99.90
4826;DHT22;2427;50.934;6.776;2022-08-19T12:42:30;28.60;99.90
4826;DHT22;2427;50.934;6.776;2022-08-19T12:44:56;28.40;99.90
4826;DHT22;2427;50.934;6.776;2022-08-19T12:47:22;28.40;99.90
4826;DHT22;2427;50.934;6.776;2022-08-19T12:49:48;28.40;99.90
4826;DHT22;2427;50.934;6.776;2022-08-19T12:52:14;28.80;99.90
4826;DHT22;2427;50.934;6.776;2022-08-19T12:54:42;29.10;99.90
4826;DHT22;2427;50.934;6.776;2022-08-19T12:57:09;29.20;99.90
4826;DHT22;2427;50.934;6.776;2022-08-19T12:59:36;29.20;99.90
4826;DHT22;2427;50.934;6.776;2022-08-19T13:02:04;29.00;99.90
4826;DHT22;2427;50.934;6.776;2022-08-19T13:04:32;29.10;99.90
4826;DHT22;2427;50.934;6.776;2022-08-19T13:06:58;29.20;99.90
4826;DHT22;2427;50.934;6.776;2022-08-19T13:09:24;29.50;99.90
4826;DHT22;2427;50.934;6.776;2022-08-19T13:11:49;29.60;99.90
4826;DHT22;2427;50.934;6.776;2022-08-19T13:14:17;29.80;99.90
4826;DHT22;2427;50.934;6.776;2022-08-19T13:16:46;30.10;99.90
4826;DHT22;2427;50.934;6.776;2022-08-19T13:19:11;30.30;99.90
4826;DHT22;2427;50.934;6.776;2022-08-19T13:21:38;30.40;99.90
4826;DHT22;2427;50.934;6.776;2022-08-19T13:24:04;30.60;99.90
4826;DHT22;2427;50.934;6.776;2022-08-19T13:26:30;30.50;99.90
4826;DHT22;2427;50.934;6.776;2022-08-19T13:28:55;30.60;99.90
4826;DHT22;2427;50.934;6.776;2022-08-19T13:31:50;30.60;99.90
4826;DHT22;2427;50.934;6.776;2022-08-19T13:34:35;30.90;99.90
4826;DHT22;2427;50.934;6.776;2022-08-19T13:37:02;31.40;99.90
4826;DHT22;2427;50.934;6.776;2022-08-19T13:39:44;31.90;99.90
4826;DHT22;2427;50.934;6.776;2022-08-19T13:42:10;33.20;99.90
4826;DHT22;2427;50.934;6.776;2022-08-19T13:44:38;34.60;99.90
4826;DHT22;2427;50.934;6.776;2022-08-19T13:47:05;35.70;99.90
4826;DHT22;2427;50.934;6.776;2022-08-19T13:49:32;36.00;99.90
4826;DHT22;2427;50.934;6.776;2022-08-19T13:51:58;35.80;99.90
4826;DHT22;2427;50.934;6.776;2022-08-19T13:54:24;36.10;99.90
4826;DHT22;2427;50.934;6.776;2022-08-19T13:56:49;36.40;99.90
4826;DHT22;2427;50.934;6.776;2022-08-19T13:59:15;37.10;99.90
4826;DHT22;2427;50.934;6.776;2022-08-19T14:01:41;37.80;99.90
4826;DHT22;2427;50.934;6.776;2022-08-19T14:04:07;37.40;99.90
4826;DHT22;2427;50.934;6.776;2022-08-19T14:06:33;37.50;99.90
4826;DHT22;2427;50.934;6.776;2022-08-19T14:08:59;37.20;99.90
4826;DHT22;2427;50.934;6.776;2022-08-19T14:11:27;37.10;99.90
4826;DHT22;2427;50.934;6.776;2022-08-19T14:13:53;37.30;99.90
4826;DHT22;2427;50.934;6.776;2022-08-19T14:16:18;37.90;99.90
4826;DHT22;2427;50.934;6.776;2022-08-19T14:18:44;38.00;99.90
4826;DHT22;2427;50.934;6.776;2022-08-19T14:21:19;37.70;99.90
4826;DHT22;2427;50.934;6.776;2022-08-19T14:23:46;37.60;99.90
4826;DHT22;2427;50.934;6.776;2022-08-19T14:26:14;38.20;99.90
4826;DHT22;2427;50.934;6.776;2022-08-19T14:28:41;37.70;99.90
4826;DHT22;2427;50.934;6.776;2022-08-19T14:31:14;37.40;99.90
4826;DHT22;2427;50.934;6.776;2022-08-19T14:33:44;37.60;99.90
4826;DHT22;2427;50.934;6.776;2022-08-19T14:36:09;38.40;99.90
4826;DHT22;2427;50.934;6.776;2022-08-19T14:38:35;38.70;99.90
4826;DHT22;2427;50.934;6.776;2022-08-19T14:41:19;38.00;99.90
4826;DHT22;2427;50.934;6.776;2022-08-19T14:43:47;37.60;99.90
4826;DHT22;2427;50.934;6.776;2022-08-19T14:46:21;38.10;99.90
4826;DHT22;2427;50.934;6.776;2022-08-19T14:48:48;38.50;99.90
4826;DHT22;2427;50.934;6.776;2022-08-19T14:51:14;38.80;99.90
4826;DHT22;2427;50.934;6.776;2022-08-19T14:53:40;39.30;99.90
4826;DHT22;2427;50.934;6.776;2022-08-19T14:56:12;39.20;99.90
4826;DHT22;2427;50.934;6.776;2022-08-19T14:58:39;38.40;99.90
4826;DHT22;2427;50.934;6.776;2022-08-19T15:01:06;38.20;99.70
4826;DHT22;2427;50.934;6.776;2022-08-19T15:03:32;36.50;97.60
4826;DHT22;2427;50.934;6.776;2022-08-19T15:05:59;36.40;98.60
4826;DHT22;2427;50.934;6.776;2022-08-19T15:08:27;36.80;99.30
4826;DHT22;2427;50.934;6.776;2022-08-19T15:10:55;37.90;99.90
4826;DHT22;2427;50.934;6.776;2022-08-19T15:13:21;38.20;99.90
4826;DHT22;2427;50.934;6.776;2022-08-19T15:15:47;38.60;98.70
4826;DHT22;2427;50.934;6.776;2022-08-19T15:18:13;38.00;97.90
4826;DHT22;2427;50.934;6.776;2022-08-19T15:20:38;36.40;95.30
4826;DHT22;2427;50.934;6.776;2022-08-19T15:23:04;34.80;94.60
4826;DHT22;2427;50.934;6.776;2022-08-19T15:25:31;33.60;94.20
4826;DHT22;2427;50.934;6.776;2022-08-19T15:27:57;32.60;95.00
4826;DHT22;2427;50.934;6.776;2022-08-19T15:30:27;33.10;97.50
4826;DHT22;2427;50.934;6.776;2022-08-19T15:32:53;33.80;99.90
4826;DHT22;2427;50.934;6.776;2022-08-19T15:35:21;34.20;99.90
4826;DHT22;2427;50.934;6.776;2022-08-19T15:37:51;35.40;99.90
4826;DHT22;2427;50.934;6.776;2022-08-19T15:40:18;35.30;99.90
4826;DHT22;2427;50.934;6.776;2022-08-19T15:42:44;34.20;99.90
4826;DHT22;2427;50.934;6.776;2022-08-19T15:45:12;33.00;99.90
4826;DHT22;2427;50.934;6.776;2022-08-19T15:47:38;31.50;99.90
4826;DHT22;2427;50.934;6.776;2022-08-19T15:50:12;30.30;99.90
4826;DHT22;2427;50.934;6.776;2022-08-19T15:52:50;30.20;99.90
4826;DHT22;2427;50.934;6.776;2022-08-19T15:55:22;30.60;99.90
4826;DHT22;2427;50.934;6.776;2022-08-19T15:57:48;31.60;99.90
4826;DHT22;2427;50.934;6.776;2022-08-19T16:00:32;32.90;99.90
4826;DHT22;2427;50.934;6.776;2022-08-19T16:03:16;34.10;99.90
4826;DHT22;2427;50.934;6.776;2022-08-19T16:06:00;35.80;99.90
4826;DHT22;2427;50.934;6.776;2022-08-19T16:08:44;36.60;99.90
4826;DHT22;2427;50.934;6.776;2022-08-19T16:11:13;37.00;99.90
4826;DHT22;2427;50.934;6.776;2022-08-19T16:13:40;36.20;99.90
4826;DHT22;2427;50.934;6.776;2022-08-19T16:16:06;36.10;99.90
4826;DHT22;2427;50.934;6.776;2022-08-19T16:18:32;35.60;99.90
4826;DHT22;2427;50.934;6.776;2022-08-19T16:21:04;33.80;99.90
4826;DHT22;2427;50.934;6.776;2022-08-19T16:23:30;32.30;99.90
4826;DHT22;2427;50.934;6.776;2022-08-19T16:25:55;31.10;99.90
4826;DHT22;2427;50.934;6.776;2022-08-19T16:28:21;30.00;99.90
4826;DHT22;2427;50.934;6.776;2022-08-19T16:30:47;29.10;99.90
4826;DHT22;2427;50.934;6.776;2022-08-19T16:33:13;28.80;99.90
4826;DHT22;2427;50.934;6.776;2022-08-19T16:35:39;28.40;99.90
4826;DHT22;2427;50.934;6.776;2022-08-19T16:38:04;28.20;99.90
4826;DHT22;2427;50.934;6.776;2022-08-19T16:40:31;28.10;99.90
4826;DHT22;2427;50.934;6.776;2022-08-19T16:42:57;28.00;99.90
4826;DHT22;2427;50.934;6.776;2022-08-19T16:45:23;27.90;99.90